This is the latest recevied weather packets stored in our database for station/object YO6LRV-6. If no packets are shown the sender has not sent any weather packets the latest 10 day(s).
| Time | Temp. | Humidity | Pressure | Rain* | Wind** | Luminosity | Snow |
|---|---|---|---|---|---|---|---|
| 1777685482 | 4.44° C | 70% | 1062.7 hPa | - | - | - | - |
| 1777684582 | 4.44° C | 69% | 1062.8 hPa | - | - | - | - |
| 1777683682 | 4.44° C | 68% | 1062.7 hPa | - | - | - | - |
| 1777682781 | 4.44° C | 68% | 1062.9 hPa | - | - | - | - |
| 1777681882 | 4.44° C | 67% | 1062.8 hPa | - | - | - | - |
| 1777680982 | 4.44° C | 67% | 1062.7 hPa | - | - | - | - |
| 1777678286 | 5° C | 63% | 1063 hPa | - | - | - | - |
| 1777672890 | 5.56° C | 61% | 1063.3 hPa | - | - | - | - |
| 1777671983 | 5.56° C | 60% | 1063.4 hPa | - | - | - | - |
| 1777671090 | 5.56° C | 58% | 1063.3 hPa | - | - | - | - |
| 1777669282 | 6.67° C | 55% | 1063.1 hPa | - | - | - | - |
| 1777668382 | 7.22° C | 53% | 1063 hPa | - | - | - | - |
| 1777667489 | 7.78° C | 51% | 1063 hPa | - | - | - | - |
| 1777665689 | 7.78° C | 50% | 1063.1 hPa | - | - | - | - |
| 1777664789 | 8.33° C | 48% | 1063 hPa | - | - | - | - |
| 1777663888 | 8.89° C | 47% | 1063 hPa | - | - | - | - |
| 1777662988 | 9.44° C | 44% | 1062.9 hPa | - | - | - | - |
| 1777662088 | 10° C | 41% | 1062.8 hPa | - | - | - | - |
| 1777661188 | 10° C | 42% | 1062.8 hPa | - | - | - | - |
| 1777660288 | 10.56° C | 40% | 1062.8 hPa | - | - | - | - |
| 1777659388 | 10.56° C | 39% | 1062.7 hPa | - | - | - | - |
| 1777658488 | 11.11° C | 39% | 1062.6 hPa | - | - | - | - |
* Rain since midnight (hover to see other rain measurements)
** Current wind speed in m/s (hover to see current wind gust speed)